METAR Data
IDs: Format: Raw Decoded Include TAF

Data at: 0007 UTC 26 Oct 2021

EVLA 252350Z AUTO 24010KT 9999 FEW018/// SCT021/// BKN024/// 10/07 Q1016